createdAt,value
2018-07-15T00:00:39.214Z,70.56
2018-07-15T00:01:46.294Z,70.47
2018-07-15T00:02:50.995Z,70.71
2018-07-15T00:03:55.643Z,70.65
2018-07-15T00:05:02.058Z,70.60
2018-07-15T00:06:07.269Z,70.52
2018-07-15T00:07:12.881Z,70.44
2018-07-15T00:08:18.588Z,70.70
2018-07-15T00:09:23.274Z,70.83
2018-07-15T00:10:28.834Z,70.66
2018-07-15T00:11:33.503Z,70.65
2018-07-15T00:12:39.347Z,71.04
2018-07-15T00:13:44.594Z,70.87
2018-07-15T00:14:49.284Z,71.04
2018-07-15T00:15:54.925Z,71.05
2018-07-15T00:16:59.574Z,71.04
2018-07-15T00:18:04.280Z,71.00
2018-07-15T00:19:12.478Z,71.59
2018-07-15T00:20:17.291Z,71.68
2018-07-15T00:21:22.051Z,71.78
2018-07-15T00:22:26.704Z,71.99
2018-07-15T00:23:31.485Z,72.34
2018-07-15T00:24:36.145Z,72.35
2018-07-15T00:25:41.124Z,72.44
2018-07-15T00:26:45.786Z,72.49
2018-07-15T00:27:50.491Z,72.47
2018-07-15T00:28:55.189Z,72.79
2018-07-15T00:29:59.958Z,72.76
2018-07-15T00:31:04.665Z,72.92
2018-07-15T00:32:10.482Z,72.75
2018-07-15T00:33:15.466Z,72.89
2018-07-15T00:34:20.166Z,72.60
2018-07-15T00:35:24.871Z,72.75
2018-07-15T00:36:29.571Z,72.67
2018-07-15T00:37:34.225Z,72.65
2018-07-15T00:38:39.265Z,72.88
2018-07-15T00:39:44.280Z,73.20
2018-07-15T00:40:48.988Z,73.41
2018-07-15T00:41:54.919Z,73.58
2018-07-15T00:42:59.806Z,73.62
2018-07-15T00:44:05.415Z,73.69
2018-07-15T00:45:12.003Z,73.48
2018-07-15T00:46:17.368Z,73.56
2018-07-15T00:47:21.959Z,73.47
2018-07-15T00:48:27.089Z,73.41
2018-07-15T00:49:31.723Z,73.52
2018-07-15T00:50:36.297Z,73.47
2018-07-15T00:51:43.049Z,73.41
2018-07-15T00:52:47.673Z,73.39
2018-07-15T00:53:52.234Z,73.39
2018-07-15T00:54:56.815Z,73.43
2018-07-15T00:56:01.396Z,73.55
2018-07-15T00:57:10.120Z,73.51
2018-07-15T00:58:15.075Z,73.70
2018-07-15T00:59:19.641Z,73.85
2018-07-15T01:00:29.203Z,73.76
2018-07-15T01:01:33.854Z,74.16
2018-07-15T01:02:43.252Z,74.13
2018-07-15T01:03:47.891Z,74.20
2018-07-15T01:04:52.793Z,74.40
2018-07-15T01:05:57.508Z,74.36
2018-07-15T01:07:03.417Z,74.24
2018-07-15T01:08:08.398Z,74.14
2018-07-15T01:09:14.039Z,74.22
2018-07-15T01:10:18.938Z,74.40
2018-07-15T01:11:24.420Z,74.51
2018-07-15T01:12:29.168Z,74.57
2018-07-15T01:13:33.790Z,74.88
2018-07-15T01:14:38.386Z,75.17
2018-07-15T01:15:43.035Z,75.12
2018-07-15T01:16:47.692Z,75.24
2018-07-15T01:17:52.567Z,75.21
2018-07-15T01:18:57.260Z,75.14
2018-07-15T01:20:02.055Z,75.29
2018-07-15T01:21:06.740Z,75.30
2018-07-15T01:22:11.357Z,75.18
2018-07-15T01:23:15.995Z,75.07
2018-07-15T01:24:20.864Z,75.14
2018-07-15T01:25:26.117Z,75.18
2018-07-15T01:26:31.006Z,75.25
2018-07-15T01:27:36.536Z,75.10
2018-07-15T01:28:41.170Z,75.32
2018-07-15T01:29:46.070Z,75.45
2018-07-15T01:30:50.687Z,75.50
2018-07-15T01:31:55.370Z,75.45
2018-07-15T01:33:00.038Z,75.30
2018-07-15T01:34:04.673Z,75.48
2018-07-15T01:35:10.458Z,75.66
2018-07-15T01:36:18.433Z,75.47
2018-07-15T01:37:23.176Z,75.51
2018-07-15T01:38:27.936Z,75.60
2018-07-15T01:39:33.250Z,75.56
2018-07-15T01:40:38.923Z,75.65
2018-07-15T01:41:44.033Z,76.05
2018-07-15T01:42:49.550Z,76.25
2018-07-15T01:43:57.297Z,76.15
2018-07-15T01:45:02.047Z,76.26
2018-07-15T01:46:06.802Z,76.35
2018-07-15T01:47:11.568Z,76.42
2018-07-15T01:48:16.683Z,76.34
2018-07-15T01:49:21.331Z,76.39
2018-07-15T01:50:26.017Z,76.58
2018-07-15T01:51:32.112Z,76.61
2018-07-15T01:52:36.873Z,76.69
2018-07-15T01:53:41.608Z,76.83
2018-07-15T01:54:46.654Z,76.92
2018-07-15T01:55:52.206Z,76.81
2018-07-15T01:56:57.406Z,76.99
2018-07-15T01:58:02.115Z,76.74
2018-07-15T01:59:06.833Z,76.82
2018-07-15T02:00:14.305Z,76.90
2018-07-15T02:01:19.337Z,76.77
2018-07-15T02:02:24.108Z,76.90
2018-07-15T02:03:28.818Z,77.03
2018-07-15T02:04:33.625Z,77.31
2018-07-15T02:05:38.364Z,77.54
2018-07-15T02:06:43.103Z,77.41
2018-07-15T02:07:48.085Z,77.91
2018-07-15T02:08:52.800Z,77.87
2018-07-15T02:09:57.543Z,77.82
2018-07-15T02:11:02.299Z,77.81
2018-07-15T02:12:07.047Z,77.90
2018-07-15T02:13:12.671Z,77.94
2018-07-15T02:14:17.999Z,77.90
2018-07-15T02:15:24.323Z,78.03
2018-07-15T02:16:29.064Z,78.23
2018-07-15T02:17:33.871Z,78.03
2018-07-15T02:18:39.113Z,78.03
2018-07-15T02:19:44.607Z,78.08
2018-07-15T02:20:49.642Z,77.79
2018-07-15T02:21:55.215Z,78.01
2018-07-15T02:22:59.956Z,77.95
2018-07-15T02:24:04.693Z,77.85
2018-07-15T02:25:09.442Z,78.03
2018-07-15T02:26:14.163Z,77.83
2018-07-15T02:27:19.194Z,77.83
2018-07-15T02:28:23.921Z,77.60
2018-07-15T02:29:28.667Z,77.71
2018-07-15T02:30:34.477Z,77.64
2018-07-15T02:31:39.182Z,77.60
2018-07-15T02:32:43.864Z,77.56
2018-07-15T02:33:50.336Z,77.44
2018-07-15T02:34:55.062Z,77.43
2018-07-15T02:35:59.818Z,78.00
2018-07-15T02:37:04.597Z,78.15
2018-07-15T02:38:10.563Z,78.05
2018-07-15T02:39:15.307Z,78.10
2018-07-15T02:40:20.321Z,77.90
2018-07-15T02:41:25.359Z,78.00
2018-07-15T02:42:30.059Z,77.91
2018-07-15T02:43:34.800Z,77.92
2018-07-15T02:44:40.529Z,78.01
2018-07-15T02:45:45.559Z,78.03
2018-07-15T02:46:50.538Z,78.14
2018-07-15T02:47:55.236Z,78.28
2018-07-15T02:48:59.940Z,78.31
2018-07-15T02:50:04.675Z,78.53
2018-07-15T02:51:09.403Z,78.47
2018-07-15T02:52:14.108Z,78.41
2018-07-15T02:53:20.104Z,78.47
2018-07-15T02:54:24.837Z,78.65
2018-07-15T02:55:29.560Z,78.70
2018-07-15T02:56:37.431Z,78.76
2018-07-15T02:57:42.162Z,78.56
2018-07-15T02:58:46.882Z,78.51
2018-07-15T02:59:51.883Z,78.72
2018-07-15T03:00:56.622Z,78.70
2018-07-15T03:02:01.349Z,78.58
2018-07-15T03:03:06.102Z,78.90
2018-07-15T03:04:10.828Z,79.05
2018-07-15T03:05:15.540Z,78.88
2018-07-15T03:06:20.557Z,78.83
2018-07-15T03:07:25.312Z,78.83
2018-07-15T03:08:30.044Z,78.83
2018-07-15T03:09:34.641Z,78.79
2018-07-15T03:10:39.293Z,79.09
2018-07-15T03:11:43.938Z,79.19
2018-07-15T03:12:48.813Z,79.24
2018-07-15T03:13:53.817Z,79.36
2018-07-15T03:14:58.445Z,79.27
2018-07-15T03:16:03.077Z,79.10
2018-07-15T03:17:07.679Z,79.14
2018-07-15T03:18:12.283Z,79.33
2018-07-15T03:19:16.886Z,79.30
2018-07-15T03:20:21.461Z,79.22
2018-07-15T03:21:26.087Z,79.29
2018-07-15T03:22:30.685Z,79.33
2018-07-15T03:23:35.275Z,79.48
2018-07-15T03:24:40.188Z,79.42
2018-07-15T03:25:44.834Z,79.39
2018-07-15T03:26:49.457Z,79.74
2018-07-15T03:27:54.092Z,79.64
2018-07-15T03:28:58.675Z,79.73
2018-07-15T03:30:03.286Z,79.60
2018-07-15T03:31:08.134Z,79.76
2018-07-15T03:32:12.721Z,79.79
2018-07-15T03:33:17.420Z,79.64
2018-07-15T03:34:22.029Z,79.65
2018-07-15T03:35:26.611Z,79.87
2018-07-15T03:36:31.191Z,79.95
2018-07-15T03:37:36.148Z,79.92
2018-07-15T03:38:40.894Z,79.92
2018-07-15T03:39:45.621Z,80.02
2018-07-15T03:40:50.391Z,80.15
2018-07-15T03:41:55.151Z,80.27
2018-07-15T03:42:59.925Z,80.09
2018-07-15T03:44:04.974Z,80.11
2018-07-15T03:45:09.684Z,80.10
2018-07-15T03:46:15.267Z,79.88
2018-07-15T03:47:20.022Z,79.87
2018-07-15T03:48:24.770Z,79.87
2018-07-15T03:49:29.515Z,79.78
2018-07-15T03:50:34.547Z,79.84
2018-07-15T03:51:39.624Z,79.63
2018-07-15T03:52:44.383Z,79.78
2018-07-15T03:53:49.212Z,79.72
2018-07-15T03:54:53.960Z,79.43
2018-07-15T03:55:58.690Z,79.54
2018-07-15T03:57:03.699Z,79.61
2018-07-15T03:58:08.413Z,79.67
2018-07-15T03:59:13.139Z,79.49
2018-07-15T04:00:17.877Z,79.46
2018-07-15T04:01:22.597Z,79.24
2018-07-15T04:02:27.793Z,79.33
2018-07-15T04:03:32.832Z,79.22
2018-07-15T04:04:37.550Z,79.30
2018-07-15T04:05:42.300Z,79.32
2018-07-15T04:06:46.980Z,79.38
2018-07-15T04:07:52.255Z,79.30
2018-07-15T04:08:57.106Z,79.24
2018-07-15T04:10:02.123Z,79.15
2018-07-15T04:11:07.158Z,79.22
2018-07-15T04:12:11.830Z,79.00
2018-07-15T04:13:16.578Z,78.82
2018-07-15T04:14:21.300Z,78.96
2018-07-15T04:15:26.047Z,78.82
2018-07-15T04:16:31.056Z,78.94
2018-07-15T04:17:35.766Z,78.69
2018-07-15T04:18:40.481Z,79.26
2018-07-15T04:19:45.191Z,79.80
2018-07-15T04:20:50.267Z,79.79
2018-07-15T04:21:55.014Z,79.65
2018-07-15T04:23:00.277Z,79.70
2018-07-15T04:24:07.432Z,79.53
2018-07-15T04:25:12.064Z,79.90
2018-07-15T04:26:16.665Z,79.46
2018-07-15T04:27:21.238Z,79.39
2018-07-15T04:28:25.837Z,79.38
2018-07-15T04:29:30.729Z,79.67
2018-07-15T04:30:35.338Z,79.96
2018-07-15T04:31:39.914Z,79.74
2018-07-15T04:32:44.780Z,79.66
2018-07-15T04:33:49.523Z,79.61
2018-07-15T04:34:54.118Z,79.51
2018-07-15T04:35:59.005Z,79.27
2018-07-15T04:37:04.253Z,79.55
2018-07-15T04:38:10.427Z,79.64
2018-07-15T04:39:15.076Z,79.87
2018-07-15T04:40:20.159Z,79.76
2018-07-15T04:41:25.688Z,79.69
2018-07-15T04:42:30.558Z,79.59
2018-07-15T04:43:35.934Z,80.19
2018-07-15T04:44:40.557Z,80.05
2018-07-15T04:45:45.167Z,80.17
2018-07-15T04:47:01.249Z,80.00
2018-07-15T04:48:06.094Z,80.07
2018-07-15T04:49:11.275Z,80.04
2018-07-15T04:50:18.042Z,80.16
2018-07-15T04:51:22.611Z,80.08
2018-07-15T04:52:27.172Z,80.30
2018-07-15T04:53:31.807Z,80.23
2018-07-15T04:54:36.419Z,80.05
2018-07-15T04:55:41.019Z,80.14
2018-07-15T04:56:45.580Z,80.04
2018-07-15T04:57:50.186Z,80.17
2018-07-15T04:58:55.013Z,80.00
2018-07-15T04:59:59.916Z,80.32
2018-07-15T05:01:05.163Z,79.89
2018-07-15T05:02:10.536Z,80.05
2018-07-15T05:03:16.255Z,79.97
2018-07-15T05:04:20.958Z,79.95
2018-07-15T05:05:25.676Z,79.77
2018-07-15T05:06:31.086Z,79.86
2018-07-15T05:07:36.113Z,79.75
2018-07-15T05:08:40.840Z,79.64
2018-07-15T05:09:45.459Z,79.84
2018-07-15T05:10:50.120Z,79.78
2018-07-15T05:11:54.728Z,79.61
2018-07-15T05:12:59.292Z,79.37
2018-07-15T05:14:05.155Z,79.38
2018-07-15T05:15:09.732Z,79.19
2018-07-15T05:16:14.381Z,79.29
2018-07-15T05:17:19.003Z,79.53
2018-07-15T05:18:23.584Z,79.47
2018-07-15T05:19:28.197Z,79.35
2018-07-15T05:20:33.095Z,79.43
2018-07-15T05:21:37.692Z,79.31
2018-07-15T05:22:42.336Z,79.18
2018-07-15T05:23:47.749Z,78.98
2018-07-15T05:24:52.713Z,78.92
2018-07-15T05:25:57.302Z,79.09
2018-07-15T05:27:02.177Z,78.90
2018-07-15T05:28:06.884Z,78.69
2018-07-15T05:29:11.533Z,78.44
2018-07-15T05:30:16.155Z,78.66
2018-07-15T05:31:20.732Z,78.60
2018-07-15T05:32:25.345Z,78.51
2018-07-15T05:33:31.213Z,78.47
2018-07-15T05:34:35.828Z,78.75
2018-07-15T05:35:40.407Z,78.68
2018-07-15T05:36:44.971Z,78.62
2018-07-15T05:37:49.658Z,78.68
2018-07-15T05:38:54.296Z,78.64
2018-07-15T05:39:59.192Z,78.07
2018-07-15T05:41:03.865Z,78.49
2018-07-15T05:42:08.484Z,78.50
2018-07-15T05:43:13.157Z,78.36
2018-07-15T05:44:17.780Z,78.34
2018-07-15T05:45:23.099Z,78.09
2018-07-15T05:46:27.988Z,78.07
2018-07-15T05:47:32.579Z,77.81
2018-07-15T05:48:37.171Z,77.62
2018-07-15T05:49:42.505Z,77.79
2018-07-15T05:50:47.127Z,77.80
2018-07-15T05:51:52.510Z,77.57
2018-07-15T05:52:58.373Z,77.68
2018-07-15T05:54:02.956Z,77.72
2018-07-15T05:55:07.753Z,77.52
2018-07-15T05:56:12.369Z,77.46
2018-07-15T05:57:17.160Z,77.65
2018-07-15T05:58:21.805Z,77.43
2018-07-15T05:59:26.676Z,77.28
2018-07-15T06:00:31.276Z,77.41
2018-07-15T06:01:35.873Z,77.33
2018-07-15T06:02:40.488Z,77.39
2018-07-15T06:03:45.393Z,77.34
2018-07-15T06:04:50.014Z,77.60
2018-07-15T06:05:54.882Z,77.68
2018-07-15T06:06:59.462Z,77.66
2018-07-15T06:08:04.132Z,77.55
2018-07-15T06:09:08.827Z,77.40
2018-07-15T06:10:13.563Z,77.33
2018-07-15T06:11:18.309Z,77.88
2018-07-15T06:12:23.307Z,77.90
2018-07-15T06:13:28.011Z,77.80
2018-07-15T06:14:32.801Z,77.83
2018-07-15T06:15:46.205Z,77.47
2018-07-15T06:16:51.400Z,77.02
2018-07-15T06:17:56.796Z,76.88
2018-07-15T06:19:01.847Z,77.17
2018-07-15T06:20:07.599Z,77.17
2018-07-15T06:21:12.315Z,77.04
2018-07-15T06:22:17.035Z,77.17
2018-07-15T06:23:21.722Z,76.99
2018-07-15T06:24:28.395Z,76.70
2018-07-15T06:25:33.291Z,76.57
2018-07-15T06:26:37.902Z,76.04
2018-07-15T06:27:42.506Z,75.91
2018-07-15T06:28:47.226Z,75.84
2018-07-15T06:29:51.974Z,75.76
2018-07-15T06:30:57.490Z,75.56
2018-07-15T06:32:03.537Z,75.37
2018-07-15T06:33:08.286Z,75.52
2018-07-15T06:34:12.997Z,75.56
2018-07-15T06:35:17.716Z,75.81
2018-07-15T06:36:22.321Z,75.83
2018-07-15T06:37:26.916Z,75.61
2018-07-15T06:38:31.810Z,75.63
2018-07-15T06:39:36.412Z,75.24
2018-07-15T06:40:41.075Z,74.76
2018-07-15T06:41:47.820Z,74.42
2018-07-15T06:42:52.420Z,74.09
2018-07-15T06:43:57.090Z,73.75
2018-07-15T06:45:01.981Z,73.64
2018-07-15T06:46:07.154Z,73.68
2018-07-15T06:47:11.732Z,73.47
2018-07-15T06:48:16.332Z,73.22
2018-07-15T06:49:21.047Z,72.73
2018-07-15T06:50:26.492Z,72.84
2018-07-15T06:51:31.733Z,72.56
2018-07-15T06:52:36.318Z,72.24
2018-07-15T06:53:41.796Z,72.02
2018-07-15T06:54:49.880Z,72.19
2018-07-15T06:55:54.507Z,72.02
2018-07-15T06:56:59.159Z,72.13
2018-07-15T06:58:04.070Z,71.92
2018-07-15T06:59:10.075Z,71.63
2018-07-15T07:00:17.217Z,71.22
2018-07-15T07:01:22.173Z,71.09
2018-07-15T07:02:26.839Z,71.30
2018-07-15T07:03:31.477Z,70.98
2018-07-15T07:04:37.489Z,70.55
2018-07-15T07:05:42.074Z,70.77
2018-07-15T07:06:46.783Z,69.94
2018-07-15T07:07:54.402Z,70.17
2018-07-15T07:08:58.998Z,69.66
2018-07-15T07:10:03.641Z,69.79
2018-07-15T07:11:08.574Z,69.11
2018-07-15T07:12:13.187Z,68.95
2018-07-15T07:13:18.710Z,68.38
2018-07-15T07:14:23.574Z,68.22
2018-07-15T07:15:28.514Z,67.81
2018-07-15T07:16:34.299Z,67.55
2018-07-15T07:17:40.736Z,67.47
2018-07-15T07:18:45.311Z,67.37
2018-07-15T07:19:49.942Z,67.20
2018-07-15T07:20:54.523Z,66.91
2018-07-15T07:21:59.133Z,66.72
2018-07-15T07:23:03.878Z,66.01
2018-07-15T07:24:08.987Z,65.60
2018-07-15T07:25:13.906Z,64.90
2018-07-15T07:26:18.709Z,65.05
2018-07-15T07:27:28.768Z,64.70
2018-07-15T07:28:33.574Z,63.96
2018-07-15T07:29:38.970Z,63.70
2018-07-15T07:30:43.760Z,62.75
2018-07-15T07:31:50.252Z,62.74
2018-07-15T07:32:55.799Z,62.38
2018-07-15T07:34:01.756Z,61.85
2018-07-15T07:35:06.549Z,61.66
2018-07-15T07:36:11.754Z,61.73
2018-07-15T07:37:16.350Z,61.58
2018-07-15T07:38:20.955Z,61.29
2018-07-15T07:39:25.542Z,60.87
2018-07-15T07:40:30.151Z,60.27
2018-07-15T07:41:35.651Z,59.95
2018-07-15T07:42:44.539Z,59.59
2018-07-15T07:43:50.745Z,59.29
2018-07-15T07:44:57.006Z,59.01
2018-07-15T07:46:02.449Z,58.74
2018-07-15T07:47:07.032Z,58.71
2018-07-15T07:48:11.684Z,58.43
2018-07-15T07:49:16.415Z,58.35
2018-07-15T07:50:27.813Z,58.43
2018-07-15T07:51:32.448Z,57.86
2018-07-15T07:52:38.153Z,58.00
2018-07-15T07:53:42.882Z,57.65
2018-07-15T07:54:47.783Z,57.54
2018-07-15T07:55:53.969Z,56.90
2018-07-15T07:57:01.735Z,57.13
2018-07-15T07:58:08.142Z,57.03
2018-07-15T07:59:12.728Z,56.80
2018-07-15T08:00:17.727Z,56.13
2018-07-15T08:01:23.853Z,56.29
2018-07-15T08:02:29.717Z,55.90
2018-07-15T08:03:35.104Z,55.74
2018-07-15T08:04:39.778Z,55.49
2018-07-15T08:05:46.126Z,55.34
2018-07-15T08:06:51.403Z,55.00
2018-07-15T08:07:57.248Z,54.61
2018-07-15T08:09:04.501Z,54.45
2018-07-15T08:10:09.099Z,54.00
2018-07-15T08:11:13.774Z,53.51
2018-07-15T08:12:19.052Z,53.13
2018-07-15T08:13:23.704Z,52.72
2018-07-15T08:14:29.012Z,52.71
2018-07-15T08:15:33.639Z,52.45
2018-07-15T08:16:38.237Z,52.23
2018-07-15T08:17:47.064Z,52.07
2018-07-15T08:18:51.839Z,51.68
2018-07-15T08:19:56.538Z,51.25
2018-07-15T08:21:01.991Z,51.33
2018-07-15T08:22:06.743Z,50.74
2018-07-15T08:23:11.504Z,50.26
2018-07-15T08:24:17.160Z,50.03
2018-07-15T08:25:21.934Z,49.42
2018-07-15T08:26:27.300Z,49.39
2018-07-15T08:27:33.529Z,48.99
2018-07-15T08:28:38.737Z,49.19
2018-07-15T08:31:49.642Z,0.00
2018-07-15T08:32:55.394Z,47.98
2018-07-15T08:34:00.500Z,47.88
2018-07-15T08:35:06.036Z,100.00
2018-07-15T08:36:11.281Z,47.43
2018-07-15T08:37:16.803Z,47.02
2018-07-15T08:38:21.474Z,55.74
2018-07-15T08:39:26.811Z,47.13
2018-07-15T08:40:31.801Z,47.07
2018-07-15T08:41:37.238Z,46.59
2018-07-15T08:42:41.871Z,0.00
2018-07-15T08:43:46.902Z,46.04
2018-07-15T08:44:51.694Z,45.59
2018-07-15T08:45:56.943Z,45.41
2018-07-15T08:47:04.341Z,44.99
2018-07-15T08:48:09.084Z,44.84
2018-07-15T08:49:13.854Z,44.25
2018-07-15T08:50:19.214Z,44.17
2018-07-15T08:51:24.206Z,44.25
2018-07-15T08:52:29.163Z,44.08
2018-07-15T08:53:34.277Z,43.96
2018-07-15T08:54:39.827Z,44.05
2018-07-15T08:55:44.563Z,43.72
2018-07-15T08:56:50.174Z,43.75
2018-07-15T08:57:56.284Z,42.78
2018-07-15T08:59:01.062Z,42.60
2018-07-15T09:00:07.313Z,42.71
2018-07-15T09:01:13.407Z,42.60
2018-07-15T09:02:19.159Z,41.96
2018-07-15T09:03:23.913Z,41.86
2018-07-15T09:04:30.115Z,41.94
2018-07-15T09:05:35.132Z,41.36
2018-07-15T09:06:40.063Z,40.70
2018-07-15T09:07:44.812Z,40.74
2018-07-15T09:08:49.807Z,39.99
2018-07-15T09:09:54.543Z,39.79
2018-07-15T09:10:59.196Z,39.60
2018-07-15T09:12:04.178Z,39.44
2018-07-15T09:13:09.112Z,39.27
2018-07-15T09:14:13.766Z,39.15
2018-07-15T09:15:19.419Z,37.84
2018-07-15T09:16:25.838Z,37.64
2018-07-15T09:17:31.465Z,37.83
2018-07-15T09:18:36.377Z,36.64
2018-07-15T09:19:41.266Z,36.49
2018-07-15T09:20:45.910Z,36.71
2018-07-15T09:21:50.577Z,36.60
2018-07-15T09:22:55.998Z,36.20
2018-07-15T09:24:01.213Z,36.32
2018-07-15T09:25:06.664Z,36.63
2018-07-15T09:26:12.742Z,36.31
2018-07-15T09:27:17.402Z,36.17
2018-07-15T09:28:22.048Z,36.48
2018-07-15T09:29:36.995Z,36.56
2018-07-15T09:30:45.214Z,36.61
2018-07-15T09:31:52.341Z,36.52
2018-07-15T09:32:59.112Z,36.82
2018-07-15T09:34:03.725Z,36.66
2018-07-15T09:35:15.230Z,36.34
2018-07-15T09:36:26.304Z,36.40
2018-07-15T09:37:37.557Z,36.25
2018-07-15T09:38:43.293Z,36.48
2018-07-15T09:39:50.092Z,36.57
2018-07-15T09:40:54.885Z,0.00
2018-07-15T09:42:01.342Z,36.04
2018-07-15T09:43:07.224Z,35.83
2018-07-15T09:44:11.839Z,35.82
2018-07-15T09:45:16.714Z,35.86
2018-07-15T09:46:22.594Z,36.37
2018-07-15T09:47:28.435Z,100.00
2018-07-15T09:48:33.810Z,36.34
2018-07-15T09:49:38.756Z,36.25
2018-07-15T09:50:45.514Z,100.00
2018-07-15T09:51:51.554Z,36.31
2018-07-15T09:53:03.146Z,35.59
2018-07-15T09:54:07.722Z,36.13
2018-07-15T09:55:12.341Z,36.18
2018-07-15T09:56:17.674Z,35.97
2018-07-15T09:57:24.471Z,36.08
2018-07-15T09:58:29.087Z,35.84
2018-07-15T09:59:34.442Z,34.90
2018-07-15T10:00:45.525Z,34.95
2018-07-15T10:01:50.199Z,35.67
2018-07-15T10:02:54.826Z,35.42
2018-07-15T10:04:02.767Z,35.38
2018-07-15T10:05:07.960Z,35.15
2018-07-15T10:06:14.286Z,35.26
2018-07-15T10:07:20.806Z,35.32
2018-07-15T10:08:28.465Z,35.02
2018-07-15T10:09:34.251Z,34.71
2018-07-15T10:10:39.775Z,34.20
2018-07-15T10:11:45.787Z,33.07
2018-07-15T10:12:52.696Z,32.95
2018-07-15T10:13:58.436Z,32.54
2018-07-15T10:15:04.361Z,32.68
2018-07-15T10:16:14.290Z,33.07
2018-07-15T10:17:21.773Z,32.93
2018-07-15T10:18:30.715Z,32.61
2018-07-15T10:19:38.318Z,32.79
2018-07-15T10:20:46.326Z,31.98
2018-07-15T10:21:52.565Z,32.42
2018-07-15T10:22:59.520Z,32.39
2018-07-15T10:24:06.330Z,32.18
2018-07-15T10:25:13.244Z,31.70
2018-07-15T10:26:20.024Z,31.47
2018-07-15T10:27:26.474Z,30.89
2018-07-15T10:28:35.427Z,31.25
2018-07-15T10:29:42.476Z,30.75
2018-07-15T10:30:50.696Z,30.31
2018-07-15T10:31:56.858Z,30.48
2018-07-15T10:33:03.645Z,30.59
2018-07-15T10:34:11.233Z,30.37
2018-07-15T10:35:17.981Z,29.88
2018-07-15T10:36:23.930Z,29.31
2018-07-15T10:37:30.471Z,29.60
2018-07-15T10:38:36.412Z,29.83
2018-07-15T10:39:46.436Z,30.29
2018-07-15T10:40:58.271Z,30.02
2018-07-15T10:42:03.807Z,29.91
2018-07-15T10:43:09.396Z,29.69
2018-07-15T10:44:14.771Z,30.40
2018-07-15T10:45:25.101Z,30.19
2018-07-15T10:46:31.591Z,29.82
2018-07-15T10:47:36.327Z,29.79
2018-07-15T10:48:42.454Z,29.99
2018-07-15T10:51:00.645Z,30.10
2018-07-15T10:52:06.371Z,29.70
2018-07-15T10:53:11.566Z,30.06
2018-07-15T10:54:16.245Z,30.17
2018-07-15T10:55:22.739Z,30.18
2018-07-15T10:56:28.638Z,30.28
2018-07-15T10:57:33.397Z,30.80
2018-07-15T10:58:46.252Z,30.82
2018-07-15T10:59:52.507Z,30.69
2018-07-15T11:00:58.200Z,30.89
2018-07-15T11:02:04.397Z,31.10
2018-07-15T11:03:13.575Z,31.09
2018-07-15T11:04:20.464Z,30.73
2018-07-15T11:05:25.162Z,31.11
2018-07-15T11:06:29.869Z,30.96
2018-07-15T11:07:34.992Z,30.95
2018-07-15T11:08:39.640Z,31.06
2018-07-15T11:09:45.049Z,31.22
2018-07-15T11:10:50.181Z,31.29
2018-07-15T11:11:55.630Z,30.87
2018-07-15T11:13:01.732Z,31.50
2018-07-15T11:14:06.490Z,31.71
2018-07-15T11:15:12.169Z,32.17
2018-07-15T11:16:17.139Z,32.17
2018-07-15T11:17:22.398Z,32.17
2018-07-15T11:18:27.891Z,31.98
2018-07-15T11:19:35.373Z,31.82
2018-07-15T11:20:41.791Z,31.38
2018-07-15T11:21:48.424Z,31.55
2018-07-15T11:22:55.971Z,31.89
2018-07-15T11:24:02.590Z,31.78
2018-07-15T11:25:09.305Z,31.81
2018-07-15T11:26:14.094Z,31.70
2018-07-15T11:27:21.919Z,31.70
2018-07-15T11:28:27.608Z,31.40
2018-07-15T11:29:39.334Z,31.00
2018-07-15T11:30:50.787Z,31.16
2018-07-15T11:31:59.415Z,30.96
2018-07-15T11:33:08.540Z,30.98
2018-07-15T11:34:13.138Z,31.06
2018-07-15T11:35:18.688Z,31.24
2018-07-15T11:36:27.391Z,31.44
2018-07-15T11:37:33.260Z,31.36
2018-07-15T11:38:39.175Z,30.47
2018-07-15T11:39:43.822Z,30.77
2018-07-15T11:40:48.534Z,30.43
2018-07-15T11:41:53.638Z,30.57
2018-07-15T11:42:58.281Z,30.23
2018-07-15T11:44:04.225Z,30.84
2018-07-15T11:45:10.607Z,31.11
2018-07-15T11:46:15.327Z,30.97
2018-07-15T11:47:20.089Z,30.65
2018-07-15T11:48:24.727Z,30.53
2018-07-15T11:49:29.528Z,30.30
2018-07-15T11:50:34.268Z,29.87
2018-07-15T11:51:39.396Z,29.75
2018-07-15T11:52:46.385Z,29.82
2018-07-15T11:53:52.329Z,29.90
2018-07-15T11:55:01.804Z,30.02
2018-07-15T11:56:06.583Z,29.91
2018-07-15T11:57:11.296Z,29.91
2018-07-15T11:58:17.428Z,29.78
2018-07-15T11:59:22.965Z,29.89
2018-07-15T12:00:28.543Z,29.89
2018-07-15T12:01:34.330Z,29.74
2018-07-15T12:02:40.077Z,29.74
2018-07-15T12:03:44.855Z,29.93
2018-07-15T12:04:55.107Z,29.82
2018-07-15T12:06:04.277Z,29.79
2018-07-15T12:07:08.936Z,29.59
2018-07-15T12:08:14.319Z,29.34
2018-07-15T12:09:20.644Z,29.16
2018-07-15T12:10:26.474Z,28.93
2018-07-15T12:11:32.987Z,28.39
2018-07-15T12:12:37.683Z,28.87
2018-07-15T12:13:43.280Z,28.50
2018-07-15T12:14:47.890Z,28.40
2018-07-15T12:15:53.470Z,28.36
2018-07-15T12:17:00.623Z,28.12
2018-07-15T12:18:06.988Z,27.88
2018-07-15T12:19:13.540Z,27.80
2018-07-15T12:20:18.238Z,28.74
2018-07-15T12:21:24.334Z,29.12
2018-07-15T12:22:29.045Z,29.07
2018-07-15T12:23:34.199Z,29.20
2018-07-15T12:24:38.830Z,28.93
2018-07-15T12:25:44.980Z,29.01
2018-07-15T12:26:50.340Z,28.94
2018-07-15T12:27:55.019Z,28.96
2018-07-15T12:29:00.191Z,28.35
2018-07-15T12:30:05.953Z,28.94
2018-07-15T12:31:11.139Z,28.97
2018-07-15T12:32:15.720Z,28.67
2018-07-15T12:33:22.518Z,28.46
2018-07-15T12:34:27.707Z,28.91
2018-07-15T12:35:34.867Z,28.84
2018-07-15T12:36:40.808Z,29.23
2018-07-15T12:37:47.316Z,28.83
2018-07-15T12:38:59.132Z,28.83
2018-07-15T12:40:05.323Z,28.83
2018-07-15T12:41:09.942Z,29.29
2018-07-15T12:42:14.550Z,29.40
2018-07-15T12:43:19.534Z,29.17
2018-07-15T12:44:25.153Z,29.32
2018-07-15T12:45:29.771Z,29.39
2018-07-15T12:46:35.052Z,29.44
2018-07-15T12:47:39.683Z,29.92
2018-07-15T12:48:44.310Z,29.32
2018-07-15T12:49:49.254Z,29.53
2018-07-15T12:50:54.628Z,29.63
2018-07-15T12:52:02.325Z,29.46
2018-07-15T12:53:08.381Z,29.54
2018-07-15T12:54:13.030Z,29.11
2018-07-15T12:55:19.803Z,28.79
2018-07-15T12:56:30.481Z,100.00
2018-07-15T12:57:36.215Z,28.09
2018-07-15T12:58:41.981Z,100.00
2018-07-15T12:59:48.746Z,27.44
2018-07-15T13:00:56.982Z,27.48
2018-07-15T13:02:02.722Z,27.58
2018-07-15T13:03:09.428Z,27.43
2018-07-15T13:04:16.119Z,0.00
2018-07-15T13:06:29.772Z,0.00
2018-07-15T13:07:36.047Z,26.94
2018-07-15T13:08:40.879Z,26.92
2018-07-15T13:09:48.678Z,26.75
2018-07-15T13:10:54.602Z,26.50
2018-07-15T13:12:02.830Z,26.64
2018-07-15T13:13:09.103Z,0.00
2018-07-15T13:14:15.396Z,26.64
2018-07-15T13:15:20.618Z,26.65
2018-07-15T13:16:27.642Z,26.78
2018-07-15T13:17:33.370Z,26.66
2018-07-15T13:18:39.968Z,26.61
2018-07-15T13:19:45.685Z,26.68
2018-07-15T13:20:52.705Z,26.38
2018-07-15T13:22:01.170Z,26.07
2018-07-15T13:23:07.762Z,26.25
2018-07-15T13:24:13.243Z,26.28
2018-07-15T13:25:21.378Z,26.31
2018-07-15T13:26:26.097Z,26.50
2018-07-15T13:27:32.139Z,26.39
2018-07-15T13:28:37.606Z,26.40
2018-07-15T13:29:44.525Z,26.43
2018-07-15T13:30:51.358Z,26.32
2018-07-15T13:31:56.113Z,26.20
2018-07-15T13:33:03.599Z,26.19
2018-07-15T13:34:08.604Z,26.15
2018-07-15T13:35:15.238Z,26.03
2018-07-15T13:36:22.268Z,26.02
2018-07-15T13:37:27.452Z,25.97
2018-07-15T13:38:33.440Z,26.12
2018-07-15T13:39:39.515Z,26.25
2018-07-15T13:40:46.445Z,26.33
2018-07-15T13:41:51.066Z,26.41
2018-07-15T13:42:56.559Z,26.38
2018-07-15T13:44:01.202Z,26.27
2018-07-15T13:45:10.657Z,26.15
2018-07-15T13:46:15.982Z,26.07
2018-07-15T13:47:27.789Z,25.98
2018-07-15T13:48:33.644Z,25.99
2018-07-15T13:49:39.376Z,25.73
2018-07-15T13:50:46.053Z,25.86
2018-07-15T13:53:07.870Z,25.77
2018-07-15T13:54:15.614Z,25.51
2018-07-15T13:55:21.667Z,25.13
2018-07-15T13:56:26.327Z,24.77
2018-07-15T13:57:30.949Z,24.68
2018-07-15T13:58:35.700Z,24.44
2018-07-15T13:59:41.275Z,24.54
2018-07-15T14:00:45.909Z,24.79
2018-07-15T14:01:51.486Z,24.82
2018-07-15T14:02:56.140Z,24.20
2018-07-15T14:04:00.823Z,24.23
2018-07-15T14:05:09.692Z,24.48
2018-07-15T14:06:15.697Z,24.78
2018-07-15T14:07:22.234Z,24.32
2018-07-15T14:08:28.997Z,24.64
2018-07-15T14:10:44.390Z,24.50